sensor_id;sensor_type;location;lat;lon;timestamp;temperature;humidity
1812;DHT22;904;47.814;11.134;2023-03-20T00:01:11;11.20;70.40
1812;DHT22;904;47.814;11.134;2023-03-20T00:03:44;11.20;70.90
1812;DHT22;904;47.814;11.134;2023-03-20T00:06:14;11.10;71.20
1812;DHT22;904;47.814;11.134;2023-03-20T00:08:45;11.10;71.40
1812;DHT22;904;47.814;11.134;2023-03-20T00:11:26;11.20;71.40
1812;DHT22;904;47.814;11.134;2023-03-20T00:13:59;11.20;72.00
1812;DHT22;904;47.814;11.134;2023-03-20T00:16:32;11.20;72.10
1812;DHT22;904;47.814;11.134;2023-03-20T00:19:00;11.20;72.30
1812;DHT22;904;47.814;11.134;2023-03-20T00:21:32;11.30;72.70
1812;DHT22;904;47.814;11.134;2023-03-20T00:24:01;11.20;73.40
1812;DHT22;904;47.814;11.134;2023-03-20T00:26:32;11.20;73.50
1812;DHT22;904;47.814;11.134;2023-03-20T00:29:01;11.20;73.90
1812;DHT22;904;47.814;11.134;2023-03-20T00:31:31;11.20;74.70
1812;DHT22;904;47.814;11.134;2023-03-20T00:34:00;11.20;74.60
1812;DHT22;904;47.814;11.134;2023-03-20T00:36:32;11.20;74.90
1812;DHT22;904;47.814;11.134;2023-03-20T00:39:01;11.30;75.20
1812;DHT22;904;47.814;11.134;2023-03-20T00:41:31;11.30;75.60
1812;DHT22;904;47.814;11.134;2023-03-20T00:44:01;11.20;76.20
1812;DHT22;904;47.814;11.134;2023-03-20T00:46:43;11.20;77.30
1812;DHT22;904;47.814;11.134;2023-03-20T00:49:12;11.20;78.60
1812;DHT22;904;47.814;11.134;2023-03-20T00:51:44;11.10;80.10
1812;DHT22;904;47.814;11.134;2023-03-20T00:54:14;11.10;80.80
1812;DHT22;904;47.814;11.134;2023-03-20T00:56:46;11.10;81.80
1812;DHT22;904;47.814;11.134;2023-03-20T00:59:19;11.00;82.70
1812;DHT22;904;47.814;11.134;2023-03-20T01:01:47;11.00;83.20
1812;DHT22;904;47.814;11.134;2023-03-20T01:04:21;11.00;84.20
1812;DHT22;904;47.814;11.134;2023-03-20T01:06:50;11.00;84.20
1812;DHT22;904;47.814;11.134;2023-03-20T01:09:20;11.00;84.50
1812;DHT22;904;47.814;11.134;2023-03-20T01:11:50;11.10;85.20
1812;DHT22;904;47.814;11.134;2023-03-20T01:14:22;11.00;86.30
1812;DHT22;904;47.814;11.134;2023-03-20T01:16:49;10.90;87.20
1812;DHT22;904;47.814;11.134;2023-03-20T01:19:17;10.80;88.00
1812;DHT22;904;47.814;11.134;2023-03-20T01:21:46;10.80;88.80
1812;DHT22;904;47.814;11.134;2023-03-20T01:24:16;10.80;89.50
1812;DHT22;904;47.814;11.134;2023-03-20T01:26:46;10.80;90.00
1812;DHT22;904;47.814;11.134;2023-03-20T01:29:18;10.70;90.40
1812;DHT22;904;47.814;11.134;2023-03-20T01:31:46;10.70;90.90
1812;DHT22;904;47.814;11.134;2023-03-20T01:34:19;10.70;91.00
1812;DHT22;904;47.814;11.134;2023-03-20T01:36:49;10.70;91.00
1812;DHT22;904;47.814;11.134;2023-03-20T01:39:19;10.80;90.80
1812;DHT22;904;47.814;11.134;2023-03-20T01:41:52;10.80;90.80
1812;DHT22;904;47.814;11.134;2023-03-20T01:44:22;10.80;90.80
1812;DHT22;904;47.814;11.134;2023-03-20T01:46:55;10.80;90.80
1812;DHT22;904;47.814;11.134;2023-03-20T01:52:27;10.80;90.50
1812;DHT22;904;47.814;11.134;2023-03-20T01:54:56;10.80;90.80
1812;DHT22;904;47.814;11.134;2023-03-20T01:57:29;10.70;90.50
1812;DHT22;904;47.814;11.134;2023-03-20T02:00:00;10.70;90.60
1812;DHT22;904;47.814;11.134;2023-03-20T02:02:30;10.70;90.80
1812;DHT22;904;47.814;11.134;2023-03-20T02:05:05;10.70;91.00
1812;DHT22;904;47.814;11.134;2023-03-20T02:07:34;10.70;90.90
1812;DHT22;904;47.814;11.134;2023-03-20T02:10:03;10.60;90.90
1812;DHT22;904;47.814;11.134;2023-03-20T02:12:34;10.60;91.10
1812;DHT22;904;47.814;11.134;2023-03-20T02:15:05;10.60;91.00
1812;DHT22;904;47.814;11.134;2023-03-20T02:17:33;10.60;91.00
1812;DHT22;904;47.814;11.134;2023-03-20T02:20:06;10.50;91.10
1812;DHT22;904;47.814;11.134;2023-03-20T02:41:07;10.50;91.10
1812;DHT22;904;47.814;11.134;2023-03-20T02:43:42;10.50;90.90
1812;DHT22;904;47.814;11.134;2023-03-20T02:46:18;10.50;91.00
1812;DHT22;904;47.814;11.134;2023-03-20T02:48:50;10.50;91.00
1812;DHT22;904;47.814;11.134;2023-03-20T02:51:27;10.40;91.20
1812;DHT22;904;47.814;11.134;2023-03-20T02:54:04;10.40;91.30
1812;DHT22;904;47.814;11.134;2023-03-20T02:56:36;10.30;91.30
1812;DHT22;904;47.814;11.134;2023-03-20T02:59:23;10.30;91.20
1812;DHT22;904;47.814;11.134;2023-03-20T03:01:58;10.30;91.50
1812;DHT22;904;47.814;11.134;2023-03-20T03:04:31;10.20;91.80
1812;DHT22;904;47.814;11.134;2023-03-20T03:07:05;10.20;91.90
1812;DHT22;904;47.814;11.134;2023-03-20T03:09:41;10.10;91.70
1812;DHT22;904;47.814;11.134;2023-03-20T03:12:15;10.10;91.90
1812;DHT22;904;47.814;11.134;2023-03-20T03:14:47;10.10;91.80
1812;DHT22;904;47.814;11.134;2023-03-20T03:17:17;10.10;91.90
1812;DHT22;904;47.814;11.134;2023-03-20T03:19:49;10.10;92.00
1812;DHT22;904;47.814;11.134;2023-03-20T03:22:23;10.10;92.00
1812;DHT22;904;47.814;11.134;2023-03-20T03:24:54;10.00;92.10
1812;DHT22;904;47.814;11.134;2023-03-20T03:27:24;10.00;92.40
1812;DHT22;904;47.814;11.134;2023-03-20T03:29:55;10.00;92.60
1812;DHT22;904;47.814;11.134;2023-03-20T03:32:42;9.90;93.30
1812;DHT22;904;47.814;11.134;2023-03-20T03:35:14;9.90;93.40
1812;DHT22;904;47.814;11.134;2023-03-20T03:37:50;10.00;92.50
1812;DHT22;904;47.814;11.134;2023-03-20T03:40:29;9.90;93.20
1812;DHT22;904;47.814;11.134;2023-03-20T03:43:02;9.90;93.30
1812;DHT22;904;47.814;11.134;2023-03-20T03:45:37;9.90;93.40
1812;DHT22;904;47.814;11.134;2023-03-20T03:48:09;10.00;92.70
1812;DHT22;904;47.814;11.134;2023-03-20T03:50:41;10.00;92.80
1812;DHT22;904;47.814;11.134;2023-03-20T03:53:23;10.00;92.70
1812;DHT22;904;47.814;11.134;2023-03-20T03:55:55;10.00;92.70
1812;DHT22;904;47.814;11.134;2023-03-20T03:58:28;10.00;92.50
1812;DHT22;904;47.814;11.134;2023-03-20T04:01:02;10.00;92.40
1812;DHT22;904;47.814;11.134;2023-03-20T04:03:37;10.00;92.30
1812;DHT22;904;47.814;11.134;2023-03-20T04:06:09;10.00;92.20
1812;DHT22;904;47.814;11.134;2023-03-20T04:08:39;10.00;92.20
1812;DHT22;904;47.814;11.134;2023-03-20T04:11:13;10.00;92.30
1812;DHT22;904;47.814;11.134;2023-03-20T04:13:41;10.00;92.30
1812;DHT22;904;47.814;11.134;2023-03-20T04:16:11;10.00;92.30
1812;DHT22;904;47.814;11.134;2023-03-20T04:18:44;10.00;92.20
1812;DHT22;904;47.814;11.134;2023-03-20T04:21:15;9.90;92.90
1812;DHT22;904;47.814;11.134;2023-03-20T04:23:45;9.90;93.00
1812;DHT22;904;47.814;11.134;2023-03-20T04:26:14;9.90;92.80
1812;DHT22;904;47.814;11.134;2023-03-20T04:28:42;9.90;92.80
1812;DHT22;904;47.814;11.134;2023-03-20T04:31:12;9.90;92.90
1812;DHT22;904;47.814;11.134;2023-03-20T04:33:41;9.90;93.00
1812;DHT22;904;47.814;11.134;2023-03-20T04:36:08;9.90;92.80
1812;DHT22;904;47.814;11.134;2023-03-20T04:38:36;9.90;92.80
1812;DHT22;904;47.814;11.134;2023-03-20T04:41:03;10.00;92.30
1812;DHT22;904;47.814;11.134;2023-03-20T04:43:32;9.90;92.80
1812;DHT22;904;47.814;11.134;2023-03-20T04:45:59;9.90;93.00
1812;DHT22;904;47.814;11.134;2023-03-20T04:48:31;9.90;93.30
1812;DHT22;904;47.814;11.134;2023-03-20T04:50:59;9.90;93.30
1812;DHT22;904;47.814;11.134;2023-03-20T04:53:28;9.90;93.50
1812;DHT22;904;47.814;11.134;2023-03-20T04:55:55;9.90;93.40
1812;DHT22;904;47.814;11.134;2023-03-20T04:58:23;9.90;93.60
1812;DHT22;904;47.814;11.134;2023-03-20T05:00:51;9.90;93.50
1812;DHT22;904;47.814;11.134;2023-03-20T05:03:26;9.90;93.60
1812;DHT22;904;47.814;11.134;2023-03-20T05:05:54;9.90;93.60
1812;DHT22;904;47.814;11.134;2023-03-20T05:08:26;9.90;93.50
1812;DHT22;904;47.814;11.134;2023-03-20T05:11:02;9.90;93.50
1812;DHT22;904;47.814;11.134;2023-03-20T05:13:32;9.80;93.50
1812;DHT22;904;47.814;11.134;2023-03-20T05:16:00;9.80;93.40
1812;DHT22;904;47.814;11.134;2023-03-20T05:18:32;9.80;93.50
1812;DHT22;904;47.814;11.134;2023-03-20T05:20:59;9.80;93.50
1812;DHT22;904;47.814;11.134;2023-03-20T05:23:27;9.80;93.50
1812;DHT22;904;47.814;11.134;2023-03-20T05:25:56;9.80;93.40
1812;DHT22;904;47.814;11.134;2023-03-20T05:28:28;9.90;93.40
1812;DHT22;904;47.814;11.134;2023-03-20T05:30:58;9.90;93.30
1812;DHT22;904;47.814;11.134;2023-03-20T05:33:27;9.90;93.20
1812;DHT22;904;47.814;11.134;2023-03-20T05:35:58;9.90;93.00
1812;DHT22;904;47.814;11.134;2023-03-20T05:38:27;9.90;92.70
1812;DHT22;904;47.814;11.134;2023-03-20T05:41:03;9.90;92.80
1812;DHT22;904;47.814;11.134;2023-03-20T05:43:36;9.90;93.00
1812;DHT22;904;47.814;11.134;2023-03-20T05:46:08;9.90;92.70
1812;DHT22;904;47.814;11.134;2023-03-20T05:48:36;9.90;92.80
1812;DHT22;904;47.814;11.134;2023-03-20T05:51:04;9.90;92.70
1812;DHT22;904;47.814;11.134;2023-03-20T05:53:35;10.00;92.10
1812;DHT22;904;47.814;11.134;2023-03-20T05:56:03;10.00;92.00
1812;DHT22;904;47.814;11.134;2023-03-20T05:58:30;10.00;92.00
1812;DHT22;904;47.814;11.134;2023-03-20T06:01:00;10.00;91.90
1812;DHT22;904;47.814;11.134;2023-03-20T06:03:30;9.90;92.40
1812;DHT22;904;47.814;11.134;2023-03-20T06:05:58;10.00;91.90
1812;DHT22;904;47.814;11.134;2023-03-20T06:08:32;10.00;91.80
1812;DHT22;904;47.814;11.134;2023-03-20T06:11:06;10.00;91.50
1812;DHT22;904;47.814;11.134;2023-03-20T06:13:36;10.00;91.40
1812;DHT22;904;47.814;11.134;2023-03-20T06:16:04;10.00;91.30
1812;DHT22;904;47.814;11.134;2023-03-20T06:18:31;10.00;91.30
1812;DHT22;904;47.814;11.134;2023-03-20T06:21:00;10.10;91.20
1812;DHT22;904;47.814;11.134;2023-03-20T06:23:30;10.10;91.00
1812;DHT22;904;47.814;11.134;2023-03-20T06:25:57;10.20;90.80
1812;DHT22;904;47.814;11.134;2023-03-20T06:28:24;10.20;90.80
1812;DHT22;904;47.814;11.134;2023-03-20T06:30:54;10.20;90.90
1812;DHT22;904;47.814;11.134;2023-03-20T06:33:22;10.20;90.90
1812;DHT22;904;47.814;11.134;2023-03-20T06:35:49;10.30;90.90
1812;DHT22;904;47.814;11.134;2023-03-20T06:38:17;10.30;90.80
1812;DHT22;904;47.814;11.134;2023-03-20T06:40:46;10.40;90.90
1812;DHT22;904;47.814;11.134;2023-03-20T06:43:13;10.40;90.90
1812;DHT22;904;47.814;11.134;2023-03-20T06:45:41;10.40;90.80
1812;DHT22;904;47.814;11.134;2023-03-20T06:48:08;10.50;90.60
1812;DHT22;904;47.814;11.134;2023-03-20T06:50:35;10.50;90.50
1812;DHT22;904;47.814;11.134;2023-03-20T06:53:03;10.60;90.20
1812;DHT22;904;47.814;11.134;2023-03-20T06:55:31;10.60;90.00
1812;DHT22;904;47.814;11.134;2023-03-20T06:57:58;10.70;89.60
1812;DHT22;904;47.814;11.134;2023-03-20T07:00:31;10.80;89.00
1812;DHT22;904;47.814;11.134;2023-03-20T07:02:59;10.90;88.70
1812;DHT22;904;47.814;11.134;2023-03-20T07:05:26;11.00;87.90
1812;DHT22;904;47.814;11.134;2023-03-20T07:07:53;11.10;87.00
1812;DHT22;904;47.814;11.134;2023-03-20T07:10:20;11.20;85.40
1812;DHT22;904;47.814;11.134;2023-03-20T07:12:50;11.30;85.00
1812;DHT22;904;47.814;11.134;2023-03-20T07:15:17;11.30;83.60
1812;DHT22;904;47.814;11.134;2023-03-20T07:17:45;11.40;82.70
1812;DHT22;904;47.814;11.134;2023-03-20T07:20:13;11.40;82.20
1812;DHT22;904;47.814;11.134;2023-03-20T07:22:40;11.50;81.50
1812;DHT22;904;47.814;11.134;2023-03-20T07:25:08;11.50;81.60
1812;DHT22;904;47.814;11.134;2023-03-20T07:27:35;11.50;80.80
1812;DHT22;904;47.814;11.134;2023-03-20T07:30:05;11.60;81.40
1812;DHT22;904;47.814;11.134;2023-03-20T07:32:33;11.70;81.00
1812;DHT22;904;47.814;11.134;2023-03-20T07:35:00;11.80;81.30
1812;DHT22;904;47.814;11.134;2023-03-20T07:37:29;11.80;81.10
1812;DHT22;904;47.814;11.134;2023-03-20T07:39:56;12.00;78.50
1812;DHT22;904;47.814;11.134;2023-03-20T07:42:23;12.00;78.20
1812;DHT22;904;47.814;11.134;2023-03-20T07:44:50;12.20;77.90
1812;DHT22;904;47.814;11.134;2023-03-20T07:47:19;12.40;77.20
1812;DHT22;904;47.814;11.134;2023-03-20T07:49:48;12.60;77.30
1812;DHT22;904;47.814;11.134;2023-03-20T07:52:17;13.10;76.30
1812;DHT22;904;47.814;11.134;2023-03-20T07:54:44;13.70;73.20
1812;DHT22;904;47.814;11.134;2023-03-20T07:57:11;14.70;70.50
1812;DHT22;904;47.814;11.134;2023-03-20T07:59:38;17.70;64.90
1812;DHT22;904;47.814;11.134;2023-03-20T08:02:05;21.30;54.20
1812;DHT22;904;47.814;11.134;2023-03-20T08:04:34;25.60;43.60
1812;DHT22;904;47.814;11.134;2023-03-20T08:07:01;29.30;33.50
1812;DHT22;904;47.814;11.134;2023-03-20T08:09:28;32.40;28.40
1812;DHT22;904;47.814;11.134;2023-03-20T08:11:54;34.90;24.40
1812;DHT22;904;47.814;11.134;2023-03-20T08:14:22;35.50;21.20
1812;DHT22;904;47.814;11.134;2023-03-20T08:16:49;36.00;19.90
1812;DHT22;904;47.814;11.134;2023-03-20T08:19:16;37.80;19.20
1812;DHT22;904;47.814;11.134;2023-03-20T08:21:44;39.00;16.80
1812;DHT22;904;47.814;11.134;2023-03-20T08:24:11;40.10;16.10
1812;DHT22;904;47.814;11.134;2023-03-20T08:26:38;41.10;15.60
1812;DHT22;904;47.814;11.134;2023-03-20T08:29:05;42.10;15.20
1812;DHT22;904;47.814;11.134;2023-03-20T08:31:34;43.50;14.10
1812;DHT22;904;47.814;11.134;2023-03-20T08:34:01;43.00;12.10
1812;DHT22;904;47.814;11.134;2023-03-20T08:36:28;39.50;13.00
1812;DHT22;904;47.814;11.134;2023-03-20T08:38:56;35.80;14.90
1812;DHT22;904;47.814;11.134;2023-03-20T08:41:23;32.60;17.20
1812;DHT22;904;47.814;11.134;2023-03-20T08:43:50;30.00;19.60
1812;DHT22;904;47.814;11.134;2023-03-20T08:46:17;27.80;21.90
1812;DHT22;904;47.814;11.134;2023-03-20T08:48:44;26.00;24.20
1812;DHT22;904;47.814;11.134;2023-03-20T08:51:10;24.40;25.70
1812;DHT22;904;47.814;11.134;2023-03-20T08:53:37;23.20;26.90
1812;DHT22;904;47.814;11.134;2023-03-20T08:56:07;22.10;28.70
1812;DHT22;904;47.814;11.134;2023-03-20T08:58:34;21.20;30.00
1812;DHT22;904;47.814;11.134;2023-03-20T09:01:05;20.60;31.20
1812;DHT22;904;47.814;11.134;2023-03-20T09:03:33;20.70;33.50
1812;DHT22;904;47.814;11.134;2023-03-20T09:06:00;21.30;32.70
1812;DHT22;904;47.814;11.134;2023-03-20T09:08:27;21.10;31.20
1812;DHT22;904;47.814;11.134;2023-03-20T09:10:53;20.80;32.00
1812;DHT22;904;47.814;11.134;2023-03-20T09:13:22;20.40;33.00
1812;DHT22;904;47.814;11.134;2023-03-20T09:15:49;20.00;33.30
1812;DHT22;904;47.814;11.134;2023-03-20T09:18:18;19.50;33.60
1812;DHT22;904;47.814;11.134;2023-03-20T09:20:46;19.10;35.00
1812;DHT22;904;47.814;11.134;2023-03-20T09:23:13;19.20;36.10
1812;DHT22;904;47.814;11.134;2023-03-20T09:25:39;20.00;35.10
1812;DHT22;904;47.814;11.134;2023-03-20T09:28:06;23.00;31.30
1812;DHT22;904;47.814;11.134;2023-03-20T09:30:35;25.50;28.30
1812;DHT22;904;47.814;11.134;2023-03-20T09:33:02;27.80;25.70
1812;DHT22;904;47.814;11.134;2023-03-20T09:35:29;29.50;24.70
1812;DHT22;904;47.814;11.134;2023-03-20T09:37:56;33.50;22.60
1812;DHT22;904;47.814;11.134;2023-03-20T09:40:27;36.20;18.50
1812;DHT22;904;47.814;11.134;2023-03-20T09:43:01;39.20;15.60
1812;DHT22;904;47.814;11.134;2023-03-20T09:45:44;40.80;14.30
1812;DHT22;904;47.814;11.134;2023-03-20T09:48:20;43.90;13.30
1812;DHT22;904;47.814;11.134;2023-03-20T09:50:56;44.60;10.70
1812;DHT22;904;47.814;11.134;2023-03-20T09:53:27;43.60;11.20
1812;DHT22;904;47.814;11.134;2023-03-20T09:55:56;45.00;11.00
1812;DHT22;904;47.814;11.134;2023-03-20T09:58:25;47.10;9.90
1812;DHT22;904;47.814;11.134;2023-03-20T10:00:57;48.60;8.80
1812;DHT22;904;47.814;11.134;2023-03-20T10:03:27;49.40;8.40
1812;DHT22;904;47.814;11.134;2023-03-20T10:05:59;50.20;8.00
1812;DHT22;904;47.814;11.134;2023-03-20T10:08:30;50.80;7.90
1812;DHT22;904;47.814;11.134;2023-03-20T10:11:10;51.40;7.10
1812;DHT22;904;47.814;11.134;2023-03-20T10:13:58;49.50;6.70
1812;DHT22;904;47.814;11.134;2023-03-20T10:24:14;44.50;7.60
1812;DHT22;904;47.814;11.134;2023-03-20T10:26:46;39.30;13.00
1812;DHT22;904;47.814;11.134;2023-03-20T10:29:22;42.30;10.70
1812;DHT22;904;47.814;11.134;2023-03-20T10:31:59;45.10;10.20
1812;DHT22;904;47.814;11.134;2023-03-20T10:34:39;47.60;9.10
1812;DHT22;904;47.814;11.134;2023-03-20T10:37:24;48.70;8.30
1812;DHT22;904;47.814;11.134;2023-03-20T10:40:01;49.00;8.30
1812;DHT22;904;47.814;11.134;2023-03-20T10:42:33;46.70;7.60
1812;DHT22;904;47.814;11.134;2023-03-20T18:55:09;43.00;8.60
1812;DHT22;904;47.814;11.134;2023-03-20T19:00:21;11.50;58.90
1812;DHT22;904;47.814;11.134;2023-03-20T19:02:50;11.50;59.10
1812;DHT22;904;47.814;11.134;2023-03-20T19:05:19;11.50;59.20
1812;DHT22;904;47.814;11.134;2023-03-20T19:07:49;11.40;59.40
1812;DHT22;904;47.814;11.134;2023-03-20T19:10:26;11.40;59.50
1812;DHT22;904;47.814;11.134;2023-03-20T19:12:54;11.30;59.40
1812;DHT22;904;47.814;11.134;2023-03-20T19:15:23;11.20;59.70
1812;DHT22;904;47.814;11.134;2023-03-20T19:17:50;11.10;60.20
1812;DHT22;904;47.814;11.134;2023-03-20T19:20:30;11.10;60.70
1812;DHT22;904;47.814;11.134;2023-03-20T19:23:00;11.00;61.30
1812;DHT22;904;47.814;11.134;2023-03-20T19:25:28;10.90;61.70
1812;DHT22;904;47.814;11.134;2023-03-20T19:27:56;10.70;62.10
1812;DHT22;904;47.814;11.134;2023-03-20T19:30:26;10.70;62.60
1812;DHT22;904;47.814;11.134;2023-03-20T19:32:54;10.60;63.50
1812;DHT22;904;47.814;11.134;2023-03-20T19:35:21;10.50;64.10
1812;DHT22;904;47.814;11.134;2023-03-20T19:37:49;10.40;64.60
1812;DHT22;904;47.814;11.134;2023-03-20T19:40:29;10.40;65.10
1812;DHT22;904;47.814;11.134;2023-03-20T19:43:00;10.30;65.90
1812;DHT22;904;47.814;11.134;2023-03-20T19:45:30;10.20;66.30
1812;DHT22;904;47.814;11.134;2023-03-20T19:47:57;10.20;66.90
1812;DHT22;904;47.814;11.134;2023-03-20T19:50:30;10.10;67.10
1812;DHT22;904;47.814;11.134;2023-03-20T19:53:00;10.10;67.60
1812;DHT22;904;47.814;11.134;2023-03-20T19:55:29;10.00;68.40
1812;DHT22;904;47.814;11.134;2023-03-20T19:57:56;10.00;69.50
1812;DHT22;904;47.814;11.134;2023-03-20T20:00:25;10.00;70.00
1812;DHT22;904;47.814;11.134;2023-03-20T20:02:53;10.00;70.30
1812;DHT22;904;47.814;11.134;2023-03-20T20:05:23;10.00;71.00
1812;DHT22;904;47.814;11.134;2023-03-20T20:07:53;10.00;71.80
1812;DHT22;904;47.814;11.134;2023-03-20T20:10:23;9.90;73.70
1812;DHT22;904;47.814;11.134;2023-03-20T20:12:57;9.90;73.60
1812;DHT22;904;47.814;11.134;2023-03-20T20:15:24;9.90;73.60
1812;DHT22;904;47.814;11.134;2023-03-20T20:17:52;9.90;73.50
1812;DHT22;904;47.814;11.134;2023-03-20T20:20:20;9.90;73.80
1812;DHT22;904;47.814;11.134;2023-03-20T20:22:48;9.90;73.70
1812;DHT22;904;47.814;11.134;2023-03-20T20:25:18;9.90;73.90
1812;DHT22;904;47.814;11.134;2023-03-20T20:27:46;9.90;74.80
1812;DHT22;904;47.814;11.134;2023-03-20T20:30:17;9.90;74.20
1812;DHT22;904;47.814;11.134;2023-03-20T20:32:45;9.90;74.60
1812;DHT22;904;47.814;11.134;2023-03-20T20:35:14;9.80;74.50
1812;DHT22;904;47.814;11.134;2023-03-20T20:37:41;9.90;74.70
1812;DHT22;904;47.814;11.134;2023-03-20T20:40:10;9.90;74.60
1812;DHT22;904;47.814;11.134;2023-03-20T20:42:39;9.90;74.70
1812;DHT22;904;47.814;11.134;2023-03-20T20:45:10;9.90;74.80
1812;DHT22;904;47.814;11.134;2023-03-20T20:47:41;9.90;75.30
1812;DHT22;904;47.814;11.134;2023-03-20T20:50:10;9.90;75.20
1812;DHT22;904;47.814;11.134;2023-03-20T20:52:38;9.90;75.30
1812;DHT22;904;47.814;11.134;2023-03-20T20:55:07;9.90;75.60
1812;DHT22;904;47.814;11.134;2023-03-20T20:57:41;9.90;76.10
1812;DHT22;904;47.814;11.134;2023-03-20T21:00:10;9.90;76.10
1812;DHT22;904;47.814;11.134;2023-03-20T21:02:38;9.90;76.10
1812;DHT22;904;47.814;11.134;2023-03-20T21:05:09;9.90;76.20
1812;DHT22;904;47.814;11.134;2023-03-20T21:07:40;9.90;76.30
1812;DHT22;904;47.814;11.134;2023-03-20T21:10:12;9.90;76.80
1812;DHT22;904;47.814;11.134;2023-03-20T21:12:46;9.90;76.90
1812;DHT22;904;47.814;11.134;2023-03-20T21:15:14;9.80;77.50
1812;DHT22;904;47.814;11.134;2023-03-20T21:17:42;9.80;77.40
1812;DHT22;904;47.814;11.134;2023-03-20T21:20:12;9.80;77.30
1812;DHT22;904;47.814;11.134;2023-03-20T21:22:42;9.80;77.20
1812;DHT22;904;47.814;11.134;2023-03-20T21:25:15;9.80;77.90
1812;DHT22;904;47.814;11.134;2023-03-20T21:27:48;9.80;78.20
1812;DHT22;904;47.814;11.134;2023-03-20T21:30:22;9.80;78.60
1812;DHT22;904;47.814;11.134;2023-03-20T21:32:53;9.80;78.80
1812;DHT22;904;47.814;11.134;2023-03-20T21:35:22;9.80;79.20
1812;DHT22;904;47.814;11.134;2023-03-20T21:37:55;9.80;79.40
1812;DHT22;904;47.814;11.134;2023-03-20T21:40:25;9.80;79.70
1812;DHT22;904;47.814;11.134;2023-03-20T21:42:54;9.80;80.00
1812;DHT22;904;47.814;11.134;2023-03-20T21:45:42;9.80;79.90
1812;DHT22;904;47.814;11.134;2023-03-20T21:48:10;9.80;80.20
1812;DHT22;904;47.814;11.134;2023-03-20T21:50:40;9.80;79.90
1812;DHT22;904;47.814;11.134;2023-03-20T21:53:07;9.90;80.00
1812;DHT22;904;47.814;11.134;2023-03-20T21:55:34;9.80;80.20
1812;DHT22;904;47.814;11.134;2023-03-20T21:58:02;9.80;80.40
1812;DHT22;904;47.814;11.134;2023-03-20T22:00:34;9.90;80.40
1812;DHT22;904;47.814;11.134;2023-03-20T22:03:02;9.90;80.70
1812;DHT22;904;47.814;11.134;2023-03-20T22:05:36;9.90;80.80
1812;DHT22;904;47.814;11.134;2023-03-20T22:08:08;9.90;80.70
1812;DHT22;904;47.814;11.134;2023-03-20T22:10:38;9.90;80.80
1812;DHT22;904;47.814;11.134;2023-03-20T22:13:06;9.90;81.00
1812;DHT22;904;47.814;11.134;2023-03-20T22:15:33;9.80;81.30
1812;DHT22;904;47.814;11.134;2023-03-20T22:18:05;9.90;81.40
1812;DHT22;904;47.814;11.134;2023-03-20T22:20:33;9.90;81.40
1812;DHT22;904;47.814;11.134;2023-03-20T22:23:00;9.90;81.20
1812;DHT22;904;47.814;11.134;2023-03-20T22:25:29;9.90;81.30
1812;DHT22;904;47.814;11.134;2023-03-20T22:28:20;9.90;81.30
1812;DHT22;904;47.814;11.134;2023-03-20T22:30:47;9.90;81.10
1812;DHT22;904;47.814;11.134;2023-03-20T22:33:18;10.00;79.10
1812;DHT22;904;47.814;11.134;2023-03-20T22:35:48;10.00;78.30
1812;DHT22;904;47.814;11.134;2023-03-20T22:38:25;10.00;78.20
1812;DHT22;904;47.814;11.134;2023-03-20T22:40:56;10.00;77.60
1812;DHT22;904;47.814;11.134;2023-03-20T22:43:28;10.00;77.30
1812;DHT22;904;47.814;11.134;2023-03-20T22:46:01;10.00;77.40
1812;DHT22;904;47.814;11.134;2023-03-20T22:48:37;10.00;77.40
1812;DHT22;904;47.814;11.134;2023-03-20T22:51:08;10.00;77.30
1812;DHT22;904;47.814;11.134;2023-03-20T22:53:37;10.00;76.90
1812;DHT22;904;47.814;11.134;2023-03-20T22:56:08;9.90;79.20
1812;DHT22;904;47.814;11.134;2023-03-20T22:58:42;9.90;78.30
1812;DHT22;904;47.814;11.134;2023-03-20T23:01:11;9.90;78.30
1812;DHT22;904;47.814;11.134;2023-03-20T23:03:38;10.00;77.00
1812;DHT22;904;47.814;11.134;2023-03-20T23:06:07;10.00;76.90
1812;DHT22;904;47.814;11.134;2023-03-20T23:08:34;10.00;76.90
1812;DHT22;904;47.814;11.134;2023-03-20T23:11:06;10.00;76.70
1812;DHT22;904;47.814;11.134;2023-03-20T23:13:39;10.00;77.10
1812;DHT22;904;47.814;11.134;2023-03-20T23:16:07;10.00;77.50
1812;DHT22;904;47.814;11.134;2023-03-20T23:18:37;9.90;79.40
1812;DHT22;904;47.814;11.134;2023-03-20T23:21:10;9.90;80.30
1812;DHT22;904;47.814;11.134;2023-03-20T23:23:37;9.80;81.60
1812;DHT22;904;47.814;11.134;2023-03-20T23:26:22;9.80;80.90
1812;DHT22;904;47.814;11.134;2023-03-20T23:28:50;9.70;81.60
1812;DHT22;904;47.814;11.134;2023-03-20T23:31:24;9.70;82.00
1812;DHT22;904;47.814;11.134;2023-03-20T23:34:00;9.70;82.40
1812;DHT22;904;47.814;11.134;2023-03-20T23:36:27;9.60;82.70
1812;DHT22;904;47.814;11.134;2023-03-20T23:38:54;9.60;82.90
1812;DHT22;904;47.814;11.134;2023-03-20T23:41:23;9.60;83.50
1812;DHT22;904;47.814;11.134;2023-03-20T23:43:53;9.60;83.20
1812;DHT22;904;47.814;11.134;2023-03-20T23:46:24;9.60;83.80
1812;DHT22;904;47.814;11.134;2023-03-20T23:48:53;9.60;83.50
1812;DHT22;904;47.814;11.134;2023-03-20T23:51:21;9.60;83.80
1812;DHT22;904;47.814;11.134;2023-03-20T23:53:48;9.60;84.20
1812;DHT22;904;47.814;11.134;2023-03-20T23:56:17;9.60;83.90
1812;DHT22;904;47.814;11.134;2023-03-20T23:58:46;9.60;84.20
